createdAt,value
2023-03-22T00:02:55.273Z,13.77
2023-03-22T00:05:58.351Z,12.43
2023-03-22T00:09:00.798Z,12.90
2023-03-22T00:12:02.963Z,15.57
2023-03-22T00:15:05.829Z,14.68
2023-03-22T00:18:08.235Z,14.20
2023-03-22T00:21:15.406Z,13.75
2023-03-22T00:24:17.643Z,12.30
2023-03-22T00:27:19.906Z,13.68
2023-03-22T00:30:22.051Z,11.45
2023-03-22T00:33:24.336Z,15.23
2023-03-22T00:36:26.522Z,11.18
2023-03-22T00:39:28.710Z,14.03
2023-03-22T00:42:31.072Z,14.15
2023-03-22T00:45:36.186Z,13.77
2023-03-22T00:48:38.464Z,16.53
2023-03-22T00:51:40.602Z,14.00
2023-03-22T00:54:42.771Z,11.07
2023-03-22T00:57:44.973Z,11.88
2023-03-22T01:00:48.148Z,11.50
2023-03-22T01:03:50.651Z,12.88
2023-03-22T01:06:59.265Z,12.30
2023-03-22T01:10:01.541Z,11.13
2023-03-22T01:13:04.487Z,9.82
2023-03-22T01:16:07.463Z,11.60
2023-03-22T01:19:09.734Z,12.63
2023-03-22T01:22:12.106Z,10.18
2023-03-22T01:25:14.583Z,15.63
2023-03-22T01:28:16.947Z,13.80
2023-03-22T01:31:19.290Z,10.38
2023-03-22T01:34:22.349Z,11.13
2023-03-22T01:37:27.680Z,12.55
2023-03-22T01:40:29.887Z,12.67
2023-03-22T01:43:32.379Z,11.95
2023-03-22T01:46:34.729Z,13.70
2023-03-22T01:49:37.730Z,16.23
2023-03-22T01:52:40.595Z,17.25
2023-03-22T01:55:47.790Z,15.15
2023-03-22T01:58:57.446Z,14.07
2023-03-22T02:02:07.959Z,13.38
2023-03-22T02:05:12.347Z,13.98
2023-03-22T02:08:15.742Z,13.77
2023-03-22T02:11:33.568Z,11.73
2023-03-22T02:14:44.653Z,15.20
2023-03-22T02:18:38.653Z,12.85
2023-03-22T02:22:01.975Z,11.67
2023-03-22T02:25:23.151Z,13.07
2023-03-22T02:28:56.408Z,14.32
2023-03-22T02:32:17.141Z,15.50
2023-03-22T02:35:42.735Z,12.48
2023-03-22T02:38:57.749Z,15.80
2023-03-22T02:42:16.036Z,13.50
2023-03-22T02:45:44.753Z,14.20
2023-03-22T02:49:02.044Z,13.70
2023-03-22T02:52:17.567Z,12.35
2023-03-22T02:55:46.390Z,13.97
2023-03-22T02:58:53.201Z,13.82
2023-03-22T03:01:57.626Z,13.52
2023-03-22T03:04:59.993Z,15.60
2023-03-22T03:08:02.737Z,14.35
2023-03-22T03:11:07.149Z,13.77
2023-03-22T03:14:20.242Z,11.23
2023-03-22T03:17:32.531Z,12.97
2023-03-22T03:20:56.589Z,13.68
2023-03-22T03:24:27.893Z,10.70
2023-03-22T03:27:38.539Z,13.43
2023-03-22T03:30:49.549Z,11.93
2023-03-22T03:34:00.740Z,14.45
2023-03-22T03:37:15.970Z,12.73
2023-03-22T03:40:23.512Z,11.13
2023-03-22T03:43:25.736Z,10.75
2023-03-22T03:46:29.235Z,12.55
2023-03-22T03:49:31.377Z,11.97
2023-03-22T03:52:34.693Z,10.25
2023-03-22T03:55:37.657Z,10.57
2023-03-22T03:58:40.809Z,10.90
2023-03-22T04:01:53.605Z,11.02
2023-03-22T04:05:00.477Z,12.48
2023-03-22T04:08:02.597Z,12.88
2023-03-22T04:11:05.410Z,10.63
2023-03-22T04:14:08.067Z,12.85
2023-03-22T04:17:10.461Z,10.95
2023-03-22T04:20:13.835Z,11.77
2023-03-22T04:23:16.240Z,11.02
2023-03-22T04:26:21.896Z,14.10
2023-03-22T04:29:40.662Z,12.60
2023-03-22T04:33:07.142Z,12.68
2023-03-22T04:36:43.017Z,14.05
2023-03-22T04:40:08.066Z,11.65
2023-03-22T04:43:19.049Z,12.05
2023-03-22T04:46:27.177Z,14.05
2023-03-22T04:49:38.240Z,11.27
2023-03-22T04:52:40.980Z,13.70
2023-03-22T04:55:43.242Z,13.50
2023-03-22T04:58:46.172Z,12.00
2023-03-22T05:01:49.316Z,11.90
2023-03-22T05:04:54.857Z,13.48
2023-03-22T05:08:10.613Z,11.32
2023-03-22T05:11:16.296Z,11.98
2023-03-22T05:14:25.595Z,10.75
2023-03-22T05:17:28.295Z,11.77
2023-03-22T05:20:32.673Z,11.82
2023-03-22T05:23:51.697Z,13.03
2023-03-22T05:26:55.203Z,11.63
2023-03-22T05:30:02.155Z,15.60
2023-03-22T05:33:22.057Z,17.30
2023-03-22T05:36:29.706Z,16.58
2023-03-22T05:39:48.964Z,15.05
2023-03-22T05:42:52.219Z,13.07
2023-03-22T05:45:58.822Z,17.58
2023-03-22T05:49:14.311Z,15.07
2023-03-22T05:52:17.154Z,15.82
2023-03-22T05:55:32.000Z,13.37
2023-03-22T05:58:36.652Z,12.00
2023-03-22T06:01:39.542Z,13.20
2023-03-22T06:04:49.645Z,11.77
2023-03-22T06:07:52.389Z,13.32
2023-03-22T06:10:56.452Z,13.50
2023-03-22T06:13:58.755Z,14.68
2023-03-22T06:17:05.954Z,14.63
2023-03-22T06:20:11.927Z,12.20
2023-03-22T06:23:16.808Z,13.13
2023-03-22T06:26:21.349Z,13.37
2023-03-22T06:29:23.717Z,11.88
2023-03-22T06:32:28.929Z,15.57
2023-03-22T06:35:33.234Z,12.33
2023-03-22T06:38:35.661Z,11.07
2023-03-22T06:41:38.193Z,15.65
2023-03-22T06:44:43.855Z,12.48
2023-03-22T06:48:09.781Z,13.18
2023-03-22T06:51:32.337Z,12.88
2023-03-22T06:54:34.805Z,12.55
2023-03-22T06:57:37.034Z,14.23
2023-03-22T07:00:39.733Z,12.70
2023-03-22T07:03:43.264Z,11.63
2023-03-22T07:06:49.365Z,10.57
2023-03-22T07:09:53.879Z,10.93
2023-03-22T07:13:01.063Z,13.02
2023-03-22T07:16:03.748Z,11.48
2023-03-22T07:19:29.372Z,10.13
2023-03-22T07:22:33.340Z,9.57
2023-03-22T07:25:35.631Z,10.52
2023-03-22T07:28:53.624Z,9.00
2023-03-22T07:32:02.084Z,10.30
2023-03-22T07:35:17.001Z,11.25
2023-03-22T07:38:19.780Z,9.23
2023-03-22T07:41:24.034Z,9.15
2023-03-22T07:44:30.867Z,9.02
2023-03-22T07:47:53.233Z,9.38
2023-03-22T07:51:01.122Z,9.85
2023-03-22T07:54:03.427Z,11.02
2023-03-22T07:57:06.956Z,10.85
2023-03-22T08:00:13.842Z,6.47
2023-03-22T08:03:23.338Z,10.50
2023-03-22T08:06:37.309Z,8.13
2023-03-22T08:09:41.782Z,8.60
2023-03-22T08:12:46.517Z,7.00
2023-03-22T08:15:57.672Z,8.73
2023-03-22T08:19:00.412Z,7.30
2023-03-22T08:22:05.231Z,9.00
2023-03-22T08:25:33.483Z,9.00
2023-03-22T08:28:43.087Z,9.63
2023-03-22T08:31:49.783Z,10.07
2023-03-22T08:34:52.838Z,10.52
2023-03-22T08:37:56.387Z,8.15
2023-03-22T08:41:05.966Z,8.17
2023-03-22T08:44:09.672Z,12.75
2023-03-22T08:47:14.582Z,9.60
2023-03-22T08:50:20.343Z,9.55
2023-03-22T08:53:31.444Z,8.23
2023-03-22T08:56:54.052Z,10.15
2023-03-22T09:00:11.107Z,8.95
2023-03-22T09:03:21.597Z,7.03
2023-03-22T09:06:26.214Z,8.70
2023-03-22T09:09:28.444Z,10.75
2023-03-22T09:12:32.175Z,9.17
2023-03-22T09:15:36.645Z,7.80
2023-03-22T09:18:54.371Z,9.20
2023-03-22T09:21:57.800Z,9.43
2023-03-22T09:25:10.356Z,6.13
2023-03-22T09:28:14.163Z,7.25
2023-03-22T09:31:20.345Z,9.32
2023-03-22T09:34:27.099Z,7.70
2023-03-22T09:37:30.599Z,9.43
2023-03-22T09:40:37.686Z,8.30
2023-03-22T09:43:43.356Z,8.87
2023-03-22T09:46:52.986Z,7.97
2023-03-22T09:50:04.596Z,8.57
2023-03-22T09:53:13.686Z,8.50
2023-03-22T09:56:34.229Z,9.68
2023-03-22T10:00:02.200Z,8.15
2023-03-22T10:03:38.355Z,9.70
2023-03-22T10:06:43.010Z,10.33
2023-03-22T10:09:50.572Z,8.38
2023-03-22T10:13:07.753Z,10.15
2023-03-22T10:16:21.576Z,8.07
2023-03-22T10:19:27.620Z,7.90
2023-03-22T10:22:37.016Z,9.50
2023-03-22T10:25:40.825Z,8.32
2023-03-22T10:28:45.200Z,10.60
2023-03-22T10:31:47.411Z,11.25
2023-03-22T10:34:49.670Z,10.48
2023-03-22T10:37:56.488Z,10.93
2023-03-22T10:40:59.437Z,7.20
2023-03-22T10:44:06.132Z,14.45
2023-03-22T10:47:11.419Z,9.47
2023-03-22T10:50:18.595Z,10.77
2023-03-22T10:53:27.121Z,8.40
2023-03-22T10:56:31.111Z,9.93
2023-03-22T10:59:49.130Z,11.18
2023-03-22T11:02:58.490Z,10.18
2023-03-22T11:06:11.771Z,10.18
2023-03-22T11:09:17.971Z,10.33
2023-03-22T11:12:21.311Z,10.55
2023-03-22T11:15:40.469Z,9.43
2023-03-22T11:18:43.535Z,9.07
2023-03-22T11:21:46.077Z,9.88
2023-03-22T11:24:48.563Z,8.32
2023-03-22T11:28:29.249Z,8.38
2023-03-22T11:31:55.155Z,12.60
2023-03-22T11:35:23.800Z,10.98
2023-03-22T11:38:36.762Z,9.63
2023-03-22T11:41:40.322Z,11.23
2023-03-22T11:44:44.417Z,10.40
2023-03-22T11:47:46.834Z,11.77
2023-03-22T11:50:52.963Z,11.20
2023-03-22T11:54:24.992Z,7.97
2023-03-22T11:57:30.832Z,11.68
2023-03-22T12:00:37.621Z,13.40
2023-03-22T12:03:44.535Z,10.80
2023-03-22T12:06:53.281Z,9.82
2023-03-22T12:10:11.489Z,13.25
2023-03-22T12:13:29.847Z,10.17
2023-03-22T12:16:40.139Z,11.23
2023-03-22T12:19:50.228Z,12.57
2023-03-22T12:22:54.478Z,8.50
2023-03-22T12:26:12.731Z,11.82
2023-03-22T12:29:19.399Z,10.02
2023-03-22T12:32:31.173Z,15.32
2023-03-22T12:35:35.634Z,9.30
2023-03-22T12:38:41.376Z,10.70
2023-03-22T12:41:49.617Z,12.20
2023-03-22T12:45:04.743Z,9.93
2023-03-22T12:48:16.791Z,9.60
2023-03-22T12:51:19.157Z,9.60
2023-03-22T12:54:25.023Z,9.77
2023-03-22T12:57:27.813Z,8.05
2023-03-22T13:00:53.875Z,11.63
2023-03-22T13:03:57.740Z,9.95
2023-03-22T13:07:13.665Z,10.65
2023-03-22T13:10:39.472Z,9.45
2023-03-22T13:13:44.488Z,9.43
2023-03-22T13:16:56.219Z,7.17
2023-03-22T13:20:00.740Z,12.38
2023-03-22T13:23:04.721Z,8.63
2023-03-22T13:26:15.029Z,8.50
2023-03-22T13:29:20.090Z,10.90
2023-03-22T13:32:33.461Z,9.18
2023-03-22T13:35:48.866Z,11.32
2023-03-22T13:38:56.599Z,7.53
2023-03-22T13:42:17.670Z,6.88
2023-03-22T13:45:33.640Z,7.13
2023-03-22T13:48:48.803Z,12.13
2023-03-22T13:51:51.509Z,5.93
2023-03-22T13:54:57.220Z,7.45
2023-03-22T13:58:00.137Z,8.27
2023-03-22T14:01:16.707Z,7.20
2023-03-22T14:04:37.428Z,6.43
2023-03-22T14:07:48.143Z,7.90
2023-03-22T14:10:58.532Z,6.07
2023-03-22T14:14:05.467Z,6.88
2023-03-22T14:17:13.800Z,6.03
2023-03-22T14:20:20.140Z,5.67
